sensor_id;sensor_type;location;lat;lon;timestamp;P1;durP1;ratioP1;P2;durP2;ratioP2
3781;SDS011;6881;49.962;7.718;2023-11-21T00:00:30;6.63;;;2.83;;
3781;SDS011;6881;49.962;7.718;2023-11-21T00:02:56;5.73;;;3.67;;
3781;SDS011;6881;49.962;7.718;2023-11-21T00:05:22;4.33;;;3.30;;
3781;SDS011;6881;49.962;7.718;2023-11-21T00:07:48;4.30;;;3.10;;
3781;SDS011;6881;49.962;7.718;2023-11-21T00:10:14;3.87;;;3.30;;
3781;SDS011;6881;49.962;7.718;2023-11-21T00:12:39;5.87;;;3.30;;
3781;SDS011;6881;49.962;7.718;2023-11-21T00:15:07;8.10;;;3.10;;
3781;SDS011;6881;49.962;7.718;2023-11-21T00:17:36;4.23;;;3.80;;
3781;SDS011;6881;49.962;7.718;2023-11-21T00:20:02;3.97;;;2.97;;
3781;SDS011;6881;49.962;7.718;2023-11-21T00:22:31;4.13;;;3.30;;
3781;SDS011;6881;49.962;7.718;2023-11-21T00:24:57;4.03;;;2.73;;
3781;SDS011;6881;49.962;7.718;2023-11-21T00:27:22;4.47;;;2.90;;
3781;SDS011;6881;49.962;7.718;2023-11-21T00:29:48;3.20;;;2.73;;
3781;SDS011;6881;49.962;7.718;2023-11-21T00:32:13;3.40;;;2.80;;
3781;SDS011;6881;49.962;7.718;2023-11-21T00:34:38;3.57;;;2.80;;
3781;SDS011;6881;49.962;7.718;2023-11-21T00:37:05;3.80;;;2.77;;
3781;SDS011;6881;49.962;7.718;2023-11-21T00:39:30;4.53;;;3.33;;
3781;SDS011;6881;49.962;7.718;2023-11-21T00:41:55;2.90;;;2.20;;
3781;SDS011;6881;49.962;7.718;2023-11-21T00:44:20;3.40;;;2.20;;
3781;SDS011;6881;49.962;7.718;2023-11-21T00:46:46;3.93;;;2.50;;
3781;SDS011;6881;49.962;7.718;2023-11-21T00:49:11;4.33;;;3.00;;
3781;SDS011;6881;49.962;7.718;2023-11-21T00:51:36;4.50;;;2.93;;
3781;SDS011;6881;49.962;7.718;2023-11-21T00:54:02;4.53;;;3.43;;
3781;SDS011;6881;49.962;7.718;2023-11-21T00:56:27;7.93;;;4.90;;
3781;SDS011;6881;49.962;7.718;2023-11-21T00:58:53;5.40;;;3.83;;
3781;SDS011;6881;49.962;7.718;2023-11-21T01:01:18;7.60;;;4.70;;
3781;SDS011;6881;49.962;7.718;2023-11-21T01:03:45;7.77;;;4.83;;
3781;SDS011;6881;49.962;7.718;2023-11-21T01:06:11;5.87;;;4.23;;
3781;SDS011;6881;49.962;7.718;2023-11-21T01:08:36;8.80;;;4.87;;
3781;SDS011;6881;49.962;7.718;2023-11-21T01:11:02;7.73;;;4.30;;
3781;SDS011;6881;49.962;7.718;2023-11-21T01:13:27;6.50;;;3.93;;
3781;SDS011;6881;49.962;7.718;2023-11-21T01:15:53;5.57;;;4.00;;
3781;SDS011;6881;49.962;7.718;2023-11-21T01:18:18;7.17;;;3.97;;
3781;SDS011;6881;49.962;7.718;2023-11-21T01:20:43;7.57;;;4.60;;
3781;SDS011;6881;49.962;7.718;2023-11-21T01:23:11;4.70;;;4.20;;
3781;SDS011;6881;49.962;7.718;2023-11-21T01:25:37;6.20;;;4.53;;
3781;SDS011;6881;49.962;7.718;2023-11-21T01:28:02;5.70;;;3.70;;
3781;SDS011;6881;49.962;7.718;2023-11-21T01:30:27;7.50;;;4.03;;
3781;SDS011;6881;49.962;7.718;2023-11-21T01:32:53;6.13;;;4.37;;
3781;SDS011;6881;49.962;7.718;2023-11-21T01:35:18;8.60;;;5.33;;
3781;SDS011;6881;49.962;7.718;2023-11-21T01:37:44;6.03;;;4.23;;
3781;SDS011;6881;49.962;7.718;2023-11-21T01:40:09;6.97;;;4.60;;
3781;SDS011;6881;49.962;7.718;2023-11-21T01:42:38;6.27;;;3.97;;
3781;SDS011;6881;49.962;7.718;2023-11-21T01:45:04;8.47;;;5.00;;
3781;SDS011;6881;49.962;7.718;2023-11-21T01:47:31;6.27;;;4.20;;
3781;SDS011;6881;49.962;7.718;2023-11-21T01:49:57;6.37;;;3.63;;
3781;SDS011;6881;49.962;7.718;2023-11-21T01:52:23;6.30;;;4.87;;
3781;SDS011;6881;49.962;7.718;2023-11-21T01:54:48;9.20;;;5.20;;
3781;SDS011;6881;49.962;7.718;2023-11-21T01:57:13;4.93;;;3.57;;
3781;SDS011;6881;49.962;7.718;2023-11-21T01:59:41;4.97;;;3.30;;
3781;SDS011;6881;49.962;7.718;2023-11-21T02:02:07;4.47;;;3.07;;
3781;SDS011;6881;49.962;7.718;2023-11-21T02:04:33;6.07;;;3.93;;
3781;SDS011;6881;49.962;7.718;2023-11-21T02:06:59;3.57;;;2.63;;
3781;SDS011;6881;49.962;7.718;2023-11-21T02:09:27;4.80;;;1.80;;
3781;SDS011;6881;49.962;7.718;2023-11-21T02:11:54;1.20;;;0.80;;
3781;SDS011;6881;49.962;7.718;2023-11-21T02:14:20;1.93;;;0.80;;
3781;SDS011;6881;49.962;7.718;2023-11-21T02:16:47;1.30;;;0.50;;
3781;SDS011;6881;49.962;7.718;2023-11-21T02:19:14;2.03;;;0.90;;
3781;SDS011;6881;49.962;7.718;2023-11-21T02:21:45;1.00;;;0.53;;
3781;SDS011;6881;49.962;7.718;2023-11-21T02:24:10;3.23;;;0.80;;
3781;SDS011;6881;49.962;7.718;2023-11-21T02:26:36;1.20;;;0.70;;
3781;SDS011;6881;49.962;7.718;2023-11-21T02:29:01;2.00;;;0.67;;
3781;SDS011;6881;49.962;7.718;2023-11-21T02:31:29;1.30;;;0.77;;
3781;SDS011;6881;49.962;7.718;2023-11-21T02:33:55;1.33;;;0.60;;
3781;SDS011;6881;49.962;7.718;2023-11-21T02:36:20;1.67;;;0.90;;
3781;SDS011;6881;49.962;7.718;2023-11-21T02:38:46;1.60;;;1.10;;
3781;SDS011;6881;49.962;7.718;2023-11-21T02:41:12;2.03;;;1.17;;
3781;SDS011;6881;49.962;7.718;2023-11-21T02:43:38;1.83;;;0.80;;
3781;SDS011;6881;49.962;7.718;2023-11-21T02:46:03;1.80;;;1.10;;
3781;SDS011;6881;49.962;7.718;2023-11-21T02:48:29;1.20;;;0.80;;
3781;SDS011;6881;49.962;7.718;2023-11-21T02:50:55;1.60;;;1.00;;
3781;SDS011;6881;49.962;7.718;2023-11-21T02:53:21;1.70;;;1.07;;
3781;SDS011;6881;49.962;7.718;2023-11-21T02:55:46;1.50;;;0.97;;
3781;SDS011;6881;49.962;7.718;2023-11-21T02:58:11;2.07;;;1.20;;
3781;SDS011;6881;49.962;7.718;2023-11-21T03:00:37;1.67;;;1.33;;
3781;SDS011;6881;49.962;7.718;2023-11-21T03:03:02;2.73;;;0.90;;
3781;SDS011;6881;49.962;7.718;2023-11-21T03:05:29;2.00;;;1.27;;
3781;SDS011;6881;49.962;7.718;2023-11-21T03:07:54;1.83;;;1.20;;
3781;SDS011;6881;49.962;7.718;2023-11-21T03:10:20;1.43;;;1.10;;
3781;SDS011;6881;49.962;7.718;2023-11-21T03:12:45;1.90;;;1.23;;
3781;SDS011;6881;49.962;7.718;2023-11-21T03:15:10;2.67;;;1.30;;
3781;SDS011;6881;49.962;7.718;2023-11-21T03:17:36;2.07;;;1.63;;
3781;SDS011;6881;49.962;7.718;2023-11-21T03:20:01;2.33;;;1.60;;
3781;SDS011;6881;49.962;7.718;2023-11-21T03:22:28;1.80;;;1.30;;
3781;SDS011;6881;49.962;7.718;2023-11-21T03:24:54;2.87;;;1.67;;
3781;SDS011;6881;49.962;7.718;2023-11-21T03:27:19;2.17;;;1.70;;
3781;SDS011;6881;49.962;7.718;2023-11-21T03:29:45;3.10;;;2.00;;
3781;SDS011;6881;49.962;7.718;2023-11-21T03:32:11;5.17;;;2.13;;
3781;SDS011;6881;49.962;7.718;2023-11-21T03:34:52;3.17;;;2.13;;
3781;SDS011;6881;49.962;7.718;2023-11-21T03:37:19;2.67;;;2.30;;
3781;SDS011;6881;49.962;7.718;2023-11-21T03:39:45;5.47;;;2.57;;
3781;SDS011;6881;49.962;7.718;2023-11-21T03:42:11;2.50;;;2.23;;
3781;SDS011;6881;49.962;7.718;2023-11-21T03:44:36;4.30;;;3.20;;
3781;SDS011;6881;49.962;7.718;2023-11-21T03:47:01;2.83;;;2.50;;
3781;SDS011;6881;49.962;7.718;2023-11-21T03:49:27;6.10;;;3.40;;
3781;SDS011;6881;49.962;7.718;2023-11-21T03:51:54;3.03;;;2.60;;
3781;SDS011;6881;49.962;7.718;2023-11-21T03:54:19;3.77;;;2.30;;
3781;SDS011;6881;49.962;7.718;2023-11-21T03:56:45;3.03;;;2.50;;
3781;SDS011;6881;49.962;7.718;2023-11-21T03:59:10;3.17;;;2.57;;
3781;SDS011;6881;49.962;7.718;2023-11-21T04:01:36;3.97;;;2.80;;
3781;SDS011;6881;49.962;7.718;2023-11-21T04:04:02;4.70;;;2.70;;
3781;SDS011;6881;49.962;7.718;2023-11-21T04:06:27;4.60;;;3.10;;
3781;SDS011;6881;49.962;7.718;2023-11-21T04:08:52;4.07;;;2.90;;
3781;SDS011;6881;49.962;7.718;2023-11-21T04:11:18;5.70;;;3.40;;
3781;SDS011;6881;49.962;7.718;2023-11-21T04:13:43;6.00;;;2.40;;
3781;SDS011;6881;49.962;7.718;2023-11-21T04:16:09;4.63;;;2.77;;
3781;SDS011;6881;49.962;7.718;2023-11-21T04:18:37;4.83;;;3.40;;
3781;SDS011;6881;49.962;7.718;2023-11-21T04:21:04;3.70;;;3.13;;
3781;SDS011;6881;49.962;7.718;2023-11-21T04:23:30;3.70;;;2.30;;
3781;SDS011;6881;49.962;7.718;2023-11-21T04:25:56;3.57;;;2.40;;
3781;SDS011;6881;49.962;7.718;2023-11-21T04:28:22;3.80;;;2.70;;
3781;SDS011;6881;49.962;7.718;2023-11-21T04:30:49;4.03;;;2.70;;
3781;SDS011;6881;49.962;7.718;2023-11-21T04:33:14;4.10;;;2.77;;
3781;SDS011;6881;49.962;7.718;2023-11-21T04:35:40;4.00;;;3.37;;
3781;SDS011;6881;49.962;7.718;2023-11-21T04:38:05;4.13;;;3.70;;
3781;SDS011;6881;49.962;7.718;2023-11-21T04:40:30;4.40;;;3.40;;
3781;SDS011;6881;49.962;7.718;2023-11-21T04:42:55;4.73;;;3.77;;
3781;SDS011;6881;49.962;7.718;2023-11-21T04:45:22;6.00;;;3.70;;
3781;SDS011;6881;49.962;7.718;2023-11-21T04:47:47;8.33;;;3.80;;
3781;SDS011;6881;49.962;7.718;2023-11-21T04:50:12;5.50;;;4.50;;
3781;SDS011;6881;49.962;7.718;2023-11-21T04:52:38;4.43;;;4.00;;
3781;SDS011;6881;49.962;7.718;2023-11-21T04:55:04;6.47;;;4.50;;
3781;SDS011;6881;49.962;7.718;2023-11-21T04:57:31;5.33;;;4.80;;
3781;SDS011;6881;49.962;7.718;2023-11-21T04:59:57;6.37;;;4.90;;
3781;SDS011;6881;49.962;7.718;2023-11-21T05:02:22;5.37;;;4.20;;
3781;SDS011;6881;49.962;7.718;2023-11-21T05:04:48;8.30;;;4.90;;
3781;SDS011;6881;49.962;7.718;2023-11-21T05:07:13;7.80;;;4.30;;
3781;SDS011;6881;49.962;7.718;2023-11-21T05:09:42;6.47;;;4.27;;
3781;SDS011;6881;49.962;7.718;2023-11-21T05:12:10;9.50;;;4.80;;
3781;SDS011;6881;49.962;7.718;2023-11-21T05:14:36;5.80;;;4.43;;
3781;SDS011;6881;49.962;7.718;2023-11-21T05:17:01;6.80;;;4.70;;
3781;SDS011;6881;49.962;7.718;2023-11-21T05:19:27;6.47;;;4.40;;
3781;SDS011;6881;49.962;7.718;2023-11-21T05:21:53;9.57;;;4.90;;
3781;SDS011;6881;49.962;7.718;2023-11-21T05:24:19;5.67;;;4.13;;
3781;SDS011;6881;49.962;7.718;2023-11-21T05:26:44;5.20;;;4.30;;
3781;SDS011;6881;49.962;7.718;2023-11-21T05:29:09;6.60;;;4.50;;
3781;SDS011;6881;49.962;7.718;2023-11-21T05:31:35;7.37;;;4.70;;
3781;SDS011;6881;49.962;7.718;2023-11-21T05:34:01;5.70;;;3.80;;
3781;SDS011;6881;49.962;7.718;2023-11-21T05:36:28;6.70;;;4.77;;
3781;SDS011;6881;49.962;7.718;2023-11-21T05:38:53;6.43;;;4.50;;
3781;SDS011;6881;49.962;7.718;2023-11-21T05:41:18;5.87;;;4.27;;
3781;SDS011;6881;49.962;7.718;2023-11-21T05:43:44;6.90;;;4.00;;
3781;SDS011;6881;49.962;7.718;2023-11-21T05:46:09;6.50;;;4.47;;
3781;SDS011;6881;49.962;7.718;2023-11-21T05:48:34;7.10;;;4.57;;
3781;SDS011;6881;49.962;7.718;2023-11-21T05:51:02;5.20;;;4.23;;
3781;SDS011;6881;49.962;7.718;2023-11-21T05:53:31;6.57;;;4.50;;
3781;SDS011;6881;49.962;7.718;2023-11-21T05:55:56;6.03;;;3.93;;
3781;SDS011;6881;49.962;7.718;2023-11-21T05:58:22;6.07;;;4.20;;
3781;SDS011;6881;49.962;7.718;2023-11-21T06:00:48;3.80;;;3.20;;
3781;SDS011;6881;49.962;7.718;2023-11-21T06:03:13;7.10;;;4.10;;
3781;SDS011;6881;49.962;7.718;2023-11-21T06:05:38;5.37;;;3.77;;
3781;SDS011;6881;49.962;7.718;2023-11-21T06:08:04;5.97;;;4.63;;
3781;SDS011;6881;49.962;7.718;2023-11-21T06:10:29;8.40;;;4.40;;
3781;SDS011;6881;49.962;7.718;2023-11-21T06:12:54;5.07;;;3.67;;
3781;SDS011;6881;49.962;7.718;2023-11-21T06:15:20;4.97;;;3.97;;
3781;SDS011;6881;49.962;7.718;2023-11-21T06:17:47;6.20;;;3.30;;
3781;SDS011;6881;49.962;7.718;2023-11-21T06:20:17;5.43;;;2.93;;
3781;SDS011;6881;49.962;7.718;2023-11-21T06:22:43;3.37;;;2.20;;
3781;SDS011;6881;49.962;7.718;2023-11-21T06:25:10;4.00;;;2.73;;
3781;SDS011;6881;49.962;7.718;2023-11-21T06:27:38;2.97;;;2.37;;
3781;SDS011;6881;49.962;7.718;2023-11-21T06:30:05;4.23;;;2.13;;
3781;SDS011;6881;49.962;7.718;2023-11-21T06:32:31;4.23;;;2.40;;
3781;SDS011;6881;49.962;7.718;2023-11-21T06:34:56;3.83;;;1.97;;
3781;SDS011;6881;49.962;7.718;2023-11-21T06:37:24;5.23;;;2.13;;
3781;SDS011;6881;49.962;7.718;2023-11-21T06:39:51;2.60;;;2.17;;
3781;SDS011;6881;49.962;7.718;2023-11-21T06:42:17;3.23;;;1.70;;
3781;SDS011;6881;49.962;7.718;2023-11-21T06:44:44;2.27;;;1.57;;
3781;SDS011;6881;49.962;7.718;2023-11-21T06:47:10;2.47;;;1.40;;
3781;SDS011;6881;49.962;7.718;2023-11-21T06:49:35;2.70;;;1.47;;
3781;SDS011;6881;49.962;7.718;2023-11-21T06:52:01;2.80;;;1.83;;
3781;SDS011;6881;49.962;7.718;2023-11-21T06:54:28;2.87;;;1.57;;
3781;SDS011;6881;49.962;7.718;2023-11-21T06:56:53;2.40;;;1.87;;
3781;SDS011;6881;49.962;7.718;2023-11-21T06:59:18;2.60;;;1.70;;
3781;SDS011;6881;49.962;7.718;2023-11-21T07:01:44;3.00;;;1.53;;
3781;SDS011;6881;49.962;7.718;2023-11-21T07:04:09;2.93;;;2.00;;
3781;SDS011;6881;49.962;7.718;2023-11-21T07:06:35;4.13;;;1.83;;
3781;SDS011;6881;49.962;7.718;2023-11-21T07:09:00;2.80;;;1.83;;
3781;SDS011;6881;49.962;7.718;2023-11-21T07:11:26;4.93;;;1.97;;
3781;SDS011;6881;49.962;7.718;2023-11-21T07:13:52;3.00;;;2.53;;
3781;SDS011;6881;49.962;7.718;2023-11-21T07:16:18;3.17;;;2.47;;
3781;SDS011;6881;49.962;7.718;2023-11-21T07:18:44;3.77;;;2.00;;
3781;SDS011;6881;49.962;7.718;2023-11-21T07:21:09;2.20;;;2.00;;
3781;SDS011;6881;49.962;7.718;2023-11-21T07:23:37;2.30;;;2.03;;
3781;SDS011;6881;49.962;7.718;2023-11-21T07:26:02;3.13;;;1.90;;
3781;SDS011;6881;49.962;7.718;2023-11-21T07:28:27;2.77;;;2.10;;
3781;SDS011;6881;49.962;7.718;2023-11-21T07:30:53;2.60;;;2.20;;
3781;SDS011;6881;49.962;7.718;2023-11-21T07:33:19;3.90;;;2.27;;
3781;SDS011;6881;49.962;7.718;2023-11-21T07:35:44;3.10;;;2.70;;
3781;SDS011;6881;49.962;7.718;2023-11-21T07:38:09;5.43;;;4.93;;
3781;SDS011;6881;49.962;7.718;2023-11-21T07:40:35;4.90;;;4.50;;
3781;SDS011;6881;49.962;7.718;2023-11-21T07:43:00;7.60;;;4.07;;
3781;SDS011;6881;49.962;7.718;2023-11-21T07:45:26;4.30;;;3.90;;
3781;SDS011;6881;49.962;7.718;2023-11-21T07:47:53;4.00;;;3.67;;
3781;SDS011;6881;49.962;7.718;2023-11-21T07:50:19;4.10;;;3.00;;
3781;SDS011;6881;49.962;7.718;2023-11-21T07:52:45;3.70;;;2.77;;
3781;SDS011;6881;49.962;7.718;2023-11-21T07:55:10;3.43;;;2.70;;
3781;SDS011;6881;49.962;7.718;2023-11-21T07:57:36;3.63;;;3.30;;
3781;SDS011;6881;49.962;7.718;2023-11-21T08:00:02;3.90;;;3.10;;
3781;SDS011;6881;49.962;7.718;2023-11-21T08:02:28;6.30;;;3.13;;
3781;SDS011;6881;49.962;7.718;2023-11-21T08:04:54;7.00;;;4.50;;
3781;SDS011;6881;49.962;7.718;2023-11-21T08:07:21;5.30;;;3.40;;
3781;SDS011;6881;49.962;7.718;2023-11-21T08:09:46;4.33;;;3.70;;
3781;SDS011;6881;49.962;7.718;2023-11-21T08:12:15;5.40;;;4.10;;
3781;SDS011;6881;49.962;7.718;2023-11-21T08:14:40;6.10;;;4.40;;
3781;SDS011;6881;49.962;7.718;2023-11-21T08:17:05;4.60;;;4.00;;
3781;SDS011;6881;49.962;7.718;2023-11-21T08:19:31;7.10;;;4.60;;
3781;SDS011;6881;49.962;7.718;2023-11-21T08:21:58;7.60;;;5.07;;
3781;SDS011;6881;49.962;7.718;2023-11-21T08:24:24;6.27;;;4.10;;
3781;SDS011;6881;49.962;7.718;2023-11-21T08:26:49;5.67;;;4.60;;
3781;SDS011;6881;49.962;7.718;2023-11-21T08:29:15;7.93;;;4.23;;
3781;SDS011;6881;49.962;7.718;2023-11-21T08:31:41;8.30;;;6.17;;
3781;SDS011;6881;49.962;7.718;2023-11-21T08:34:07;9.80;;;6.53;;
3781;SDS011;6881;49.962;7.718;2023-11-21T08:36:33;8.30;;;6.83;;
3781;SDS011;6881;49.962;7.718;2023-11-21T08:38:59;11.17;;;7.30;;
3781;SDS011;6881;49.962;7.718;2023-11-21T08:41:24;10.43;;;6.73;;
3781;SDS011;6881;49.962;7.718;2023-11-21T08:43:50;4.93;;;3.47;;
3781;SDS011;6881;49.962;7.718;2023-11-21T08:46:16;3.63;;;3.27;;
3781;SDS011;6881;49.962;7.718;2023-11-21T08:48:43;5.47;;;3.77;;
3781;SDS011;6881;49.962;7.718;2023-11-21T08:51:09;3.80;;;2.93;;
3781;SDS011;6881;49.962;7.718;2023-11-21T08:53:36;2.90;;;2.33;;
3781;SDS011;6881;49.962;7.718;2023-11-21T08:56:02;3.63;;;2.50;;
3781;SDS011;6881;49.962;7.718;2023-11-21T08:58:33;3.20;;;2.20;;
3781;SDS011;6881;49.962;7.718;2023-11-21T09:00:58;3.40;;;2.33;;
3781;SDS011;6881;49.962;7.718;2023-11-21T09:03:24;4.20;;;2.13;;
3781;SDS011;6881;49.962;7.718;2023-11-21T09:05:50;3.80;;;2.60;;
3781;SDS011;6881;49.962;7.718;2023-11-21T09:08:15;3.83;;;2.57;;
3781;SDS011;6881;49.962;7.718;2023-11-21T09:10:41;4.97;;;2.83;;
3781;SDS011;6881;49.962;7.718;2023-11-21T09:13:08;3.97;;;2.30;;
3781;SDS011;6881;49.962;7.718;2023-11-21T09:15:34;3.93;;;2.50;;
3781;SDS011;6881;49.962;7.718;2023-11-21T09:18:00;9.70;;;3.20;;
3781;SDS011;6881;49.962;7.718;2023-11-21T09:20:26;3.80;;;2.77;;
3781;SDS011;6881;49.962;7.718;2023-11-21T09:22:52;5.07;;;4.30;;
3781;SDS011;6881;49.962;7.718;2023-11-21T09:25:17;5.70;;;3.80;;
3781;SDS011;6881;49.962;7.718;2023-11-21T09:27:44;8.33;;;5.50;;
3781;SDS011;6881;49.962;7.718;2023-11-21T09:30:11;5.60;;;4.63;;
3781;SDS011;6881;49.962;7.718;2023-11-21T09:32:39;8.73;;;6.63;;
3781;SDS011;6881;49.962;7.718;2023-11-21T09:35:05;9.27;;;5.60;;
3781;SDS011;6881;49.962;7.718;2023-11-21T09:37:33;7.50;;;6.07;;
3781;SDS011;6881;49.962;7.718;2023-11-21T09:39:58;9.37;;;6.63;;
3781;SDS011;6881;49.962;7.718;2023-11-21T09:42:30;8.90;;;6.60;;
3781;SDS011;6881;49.962;7.718;2023-11-21T09:47:53;7.37;;;5.50;;
3781;SDS011;6881;49.962;7.718;2023-11-21T09:50:20;9.17;;;6.23;;
3781;SDS011;6881;49.962;7.718;2023-11-21T09:52:52;9.27;;;5.80;;
3781;SDS011;6881;49.962;7.718;2023-11-21T09:55:20;7.43;;;6.73;;
3781;SDS011;6881;49.962;7.718;2023-11-21T09:57:47;10.13;;;7.47;;
3781;SDS011;6881;49.962;7.718;2023-11-21T10:00:13;7.90;;;5.57;;
3781;SDS011;6881;49.962;7.718;2023-11-21T10:02:42;8.77;;;6.63;;
3781;SDS011;6881;49.962;7.718;2023-11-21T10:05:08;8.67;;;6.03;;
3781;SDS011;6881;49.962;7.718;2023-11-21T10:07:36;11.67;;;5.67;;
3781;SDS011;6881;49.962;7.718;2023-11-21T10:10:04;9.47;;;5.97;;
3781;SDS011;6881;49.962;7.718;2023-11-21T10:12:31;7.73;;;3.80;;
3781;SDS011;6881;49.962;7.718;2023-11-21T10:14:57;4.87;;;4.37;;
3781;SDS011;6881;49.962;7.718;2023-11-21T10:17:23;7.10;;;5.17;;
3781;SDS011;6881;49.962;7.718;2023-11-21T10:19:51;8.40;;;4.30;;
3781;SDS011;6881;49.962;7.718;2023-11-21T10:22:18;5.67;;;3.93;;
3781;SDS011;6881;49.962;7.718;2023-11-21T10:24:45;8.30;;;6.00;;
3781;SDS011;6881;49.962;7.718;2023-11-21T10:27:10;6.03;;;4.63;;
3781;SDS011;6881;49.962;7.718;2023-11-21T10:29:35;8.57;;;4.77;;
3781;SDS011;6881;49.962;7.718;2023-11-21T10:32:04;6.53;;;4.40;;
3781;SDS011;6881;49.962;7.718;2023-11-21T10:34:30;7.10;;;6.10;;
3781;SDS011;6881;49.962;7.718;2023-11-21T10:36:56;7.33;;;5.73;;
3781;SDS011;6881;49.962;7.718;2023-11-21T10:39:23;8.67;;;6.37;;
3781;SDS011;6881;49.962;7.718;2023-11-21T10:41:49;8.87;;;5.30;;
3781;SDS011;6881;49.962;7.718;2023-11-21T10:44:15;5.90;;;4.80;;
3781;SDS011;6881;49.962;7.718;2023-11-21T10:46:52;11.63;;;10.57;;
3781;SDS011;6881;49.962;7.718;2023-11-21T10:49:21;6.73;;;6.03;;
3781;SDS011;6881;49.962;7.718;2023-11-21T10:51:49;7.30;;;4.47;;
3781;SDS011;6881;49.962;7.718;2023-11-21T10:54:23;9.00;;;6.80;;
3781;SDS011;6881;49.962;7.718;2023-11-21T10:56:50;7.50;;;5.70;;
3781;SDS011;6881;49.962;7.718;2023-11-21T10:59:19;8.80;;;5.50;;
3781;SDS011;6881;49.962;7.718;2023-11-21T11:01:46;5.30;;;4.60;;
3781;SDS011;6881;49.962;7.718;2023-11-21T11:04:14;6.67;;;4.43;;
3781;SDS011;6881;49.962;7.718;2023-11-21T11:06:42;7.57;;;4.70;;
3781;SDS011;6881;49.962;7.718;2023-11-21T11:09:09;6.10;;;4.80;;
3781;SDS011;6881;49.962;7.718;2023-11-21T11:11:38;7.17;;;4.73;;
3781;SDS011;6881;49.962;7.718;2023-11-21T11:14:06;5.93;;;4.43;;
3781;SDS011;6881;49.962;7.718;2023-11-21T11:16:33;4.80;;;4.27;;
3781;SDS011;6881;49.962;7.718;2023-11-21T11:18:59;6.80;;;5.00;;
3781;SDS011;6881;49.962;7.718;2023-11-21T11:21:27;7.60;;;4.63;;
3781;SDS011;6881;49.962;7.718;2023-11-21T11:32:46;8.10;;;5.37;;
3781;SDS011;6881;49.962;7.718;2023-11-21T11:38:20;7.23;;;5.00;;
3781;SDS011;6881;49.962;7.718;2023-11-21T11:40:47;6.97;;;4.07;;
3781;SDS011;6881;49.962;7.718;2023-11-21T11:43:13;10.13;;;5.03;;
3781;SDS011;6881;49.962;7.718;2023-11-21T11:45:38;9.17;;;4.73;;
3781;SDS011;6881;49.962;7.718;2023-11-21T11:48:06;6.37;;;4.23;;
3781;SDS011;6881;49.962;7.718;2023-11-21T11:50:32;5.13;;;4.50;;
3781;SDS011;6881;49.962;7.718;2023-11-21T11:53:13;6.20;;;4.63;;
3781;SDS011;6881;49.962;7.718;2023-11-21T11:55:40;5.17;;;4.10;;
3781;SDS011;6881;49.962;7.718;2023-11-21T11:58:06;8.10;;;4.73;;
3781;SDS011;6881;49.962;7.718;2023-11-21T12:02:58;6.13;;;5.20;;
3781;SDS011;6881;49.962;7.718;2023-11-21T12:05:27;8.00;;;5.10;;
3781;SDS011;6881;49.962;7.718;2023-11-21T12:07:56;7.50;;;4.60;;
3781;SDS011;6881;49.962;7.718;2023-11-21T12:10:26;6.30;;;5.17;;
3781;SDS011;6881;49.962;7.718;2023-11-21T12:12:54;12.60;;;7.47;;
3781;SDS011;6881;49.962;7.718;2023-11-21T12:15:20;10.20;;;6.20;;
3781;SDS011;6881;49.962;7.718;2023-11-21T12:17:46;7.80;;;6.70;;
3781;SDS011;6881;49.962;7.718;2023-11-21T12:20:13;10.93;;;7.20;;
3781;SDS011;6881;49.962;7.718;2023-11-21T12:22:45;8.00;;;6.60;;
3781;SDS011;6881;49.962;7.718;2023-11-21T12:25:17;10.70;;;6.57;;
3781;SDS011;6881;49.962;7.718;2023-11-21T12:27:44;11.40;;;7.00;;
3781;SDS011;6881;49.962;7.718;2023-11-21T12:30:11;11.27;;;7.43;;
3781;SDS011;6881;49.962;7.718;2023-11-21T12:32:40;8.87;;;6.17;;
3781;SDS011;6881;49.962;7.718;2023-11-21T12:35:06;9.43;;;6.57;;
3781;SDS011;6881;49.962;7.718;2023-11-21T12:37:33;8.50;;;7.10;;
3781;SDS011;6881;49.962;7.718;2023-11-21T12:39:58;7.70;;;6.40;;
3781;SDS011;6881;49.962;7.718;2023-11-21T12:42:24;12.23;;;6.90;;
3781;SDS011;6881;49.962;7.718;2023-11-21T12:45:06;8.97;;;6.43;;
3781;SDS011;6881;49.962;7.718;2023-11-21T12:47:41;10.50;;;7.47;;
3781;SDS011;6881;49.962;7.718;2023-11-21T12:50:07;10.13;;;6.53;;
3781;SDS011;6881;49.962;7.718;2023-11-21T12:52:39;7.90;;;6.53;;
3781;SDS011;6881;49.962;7.718;2023-11-21T12:55:09;10.03;;;6.77;;
3781;SDS011;6881;49.962;7.718;2023-11-21T12:57:34;9.33;;;6.90;;
3781;SDS011;6881;49.962;7.718;2023-11-21T13:00:03;12.30;;;6.33;;
3781;SDS011;6881;49.962;7.718;2023-11-21T13:02:36;9.80;;;7.53;;
3781;SDS011;6881;49.962;7.718;2023-11-21T13:05:03;8.87;;;6.37;;
3781;SDS011;6881;49.962;7.718;2023-11-21T13:07:40;8.73;;;6.17;;
3781;SDS011;6881;49.962;7.718;2023-11-21T13:10:11;10.67;;;6.00;;
3781;SDS011;6881;49.962;7.718;2023-11-21T13:12:46;9.90;;;6.40;;
3781;SDS011;6881;49.962;7.718;2023-11-21T13:15:16;10.87;;;7.27;;
3781;SDS011;6881;49.962;7.718;2023-11-21T13:17:42;8.37;;;5.87;;
3781;SDS011;6881;49.962;7.718;2023-11-21T13:20:11;11.37;;;7.00;;
3781;SDS011;6881;49.962;7.718;2023-11-21T13:23:06;15.10;;;7.47;;
3781;SDS011;6881;49.962;7.718;2023-11-21T13:25:32;7.37;;;6.13;;
3781;SDS011;6881;49.962;7.718;2023-11-21T13:27:58;10.87;;;7.40;;
3781;SDS011;6881;49.962;7.718;2023-11-21T13:30:24;14.20;;;6.80;;
3781;SDS011;6881;49.962;7.718;2023-11-21T13:32:58;10.60;;;6.40;;
3781;SDS011;6881;49.962;7.718;2023-11-21T13:35:26;11.87;;;7.17;;
3781;SDS011;6881;49.962;7.718;2023-11-21T13:38:08;9.43;;;6.13;;
3781;SDS011;6881;49.962;7.718;2023-11-21T13:40:35;11.30;;;6.03;;
3781;SDS011;6881;49.962;7.718;2023-11-21T13:43:11;8.47;;;6.30;;
3781;SDS011;6881;49.962;7.718;2023-11-21T13:45:40;10.53;;;7.40;;
3781;SDS011;6881;49.962;7.718;2023-11-21T13:48:07;10.87;;;6.23;;
3781;SDS011;6881;49.962;7.718;2023-11-21T13:50:37;9.13;;;7.20;;
3781;SDS011;6881;49.962;7.718;2023-11-21T13:53:03;9.30;;;6.50;;
3781;SDS011;6881;49.962;7.718;2023-11-21T13:55:41;7.33;;;6.37;;
3781;SDS011;6881;49.962;7.718;2023-11-21T13:58:06;9.37;;;7.10;;
3781;SDS011;6881;49.962;7.718;2023-11-21T14:00:36;13.23;;;8.57;;
3781;SDS011;6881;49.962;7.718;2023-11-21T14:03:07;11.30;;;8.63;;
3781;SDS011;6881;49.962;7.718;2023-11-21T14:05:42;16.37;;;8.33;;
3781;SDS011;6881;49.962;7.718;2023-11-21T14:08:08;10.07;;;6.87;;
3781;SDS011;6881;49.962;7.718;2023-11-21T14:10:33;14.53;;;7.90;;
3781;SDS011;6881;49.962;7.718;2023-11-21T14:13:15;14.10;;;9.40;;
3781;SDS011;6881;49.962;7.718;2023-11-21T14:15:41;14.60;;;9.60;;
3781;SDS011;6881;49.962;7.718;2023-11-21T14:18:10;11.80;;;8.07;;
3781;SDS011;6881;49.962;7.718;2023-11-21T14:20:39;13.93;;;8.50;;
3781;SDS011;6881;49.962;7.718;2023-11-21T14:23:05;11.93;;;8.40;;
3781;SDS011;6881;49.962;7.718;2023-11-21T14:25:32;9.40;;;7.83;;
3781;SDS011;6881;49.962;7.718;2023-11-21T14:27:58;13.37;;;7.67;;
3781;SDS011;6881;49.962;7.718;2023-11-21T14:30:24;11.90;;;8.57;;
3781;SDS011;6881;49.962;7.718;2023-11-21T14:32:50;14.13;;;7.77;;
3781;SDS011;6881;49.962;7.718;2023-11-21T14:35:16;11.60;;;8.27;;
3781;SDS011;6881;49.962;7.718;2023-11-21T14:37:42;12.50;;;7.93;;
3781;SDS011;6881;49.962;7.718;2023-11-21T14:40:07;18.00;;;8.80;;
3781;SDS011;6881;49.962;7.718;2023-11-21T14:42:33;13.20;;;8.70;;
3781;SDS011;6881;49.962;7.718;2023-11-21T14:45:02;18.23;;;8.50;;
3781;SDS011;6881;49.962;7.718;2023-11-21T14:47:31;10.33;;;7.47;;
3781;SDS011;6881;49.962;7.718;2023-11-21T14:49:57;12.30;;;8.50;;
3781;SDS011;6881;49.962;7.718;2023-11-21T14:52:24;15.90;;;8.67;;
3781;SDS011;6881;49.962;7.718;2023-11-21T14:54:53;13.43;;;8.07;;
3781;SDS011;6881;49.962;7.718;2023-11-21T14:57:38;17.83;;;8.27;;
3781;SDS011;6881;49.962;7.718;2023-11-21T15:00:04;14.33;;;8.80;;
3781;SDS011;6881;49.962;7.718;2023-11-21T15:02:34;16.43;;;8.33;;
3781;SDS011;6881;49.962;7.718;2023-11-21T15:05:15;17.17;;;7.93;;
3781;SDS011;6881;49.962;7.718;2023-11-21T15:07:41;13.63;;;9.40;;
3781;SDS011;6881;49.962;7.718;2023-11-21T15:10:07;15.37;;;9.90;;
3781;SDS011;6881;49.962;7.718;2023-11-21T15:12:39;16.37;;;9.90;;
3781;SDS011;6881;49.962;7.718;2023-11-21T15:15:05;18.67;;;10.37;;
3781;SDS011;6881;49.962;7.718;2023-11-21T15:17:35;13.50;;;8.67;;
3781;SDS011;6881;49.962;7.718;2023-11-21T15:20:01;11.73;;;7.97;;
3781;SDS011;6881;49.962;7.718;2023-11-21T15:22:28;15.00;;;8.30;;
3781;SDS011;6881;49.962;7.718;2023-11-21T15:24:53;11.27;;;7.60;;
3781;SDS011;6881;49.962;7.718;2023-11-21T15:27:19;14.80;;;7.23;;